createdAt,value
2022-08-26T00:02:01.239Z,19.60
2022-08-26T00:04:31.387Z,18.50
2022-08-26T00:07:00.889Z,22.20
2022-08-26T00:09:29.710Z,22.80
2022-08-26T00:11:58.221Z,20.40
2022-08-26T00:14:31.029Z,18.30
2022-08-26T00:17:00.475Z,18.50
2022-08-26T00:19:29.115Z,16.30
2022-08-26T00:21:57.650Z,16.70
2022-08-26T00:24:26.197Z,24.10
2022-08-26T00:26:54.773Z,16.30
2022-08-26T00:29:23.260Z,19.60
2022-08-26T00:31:51.853Z,15.90
2022-08-26T00:34:20.337Z,21.50
2022-08-26T00:36:51.805Z,17.80
2022-08-26T00:39:21.473Z,16.20
2022-08-26T00:41:50.049Z,19.70
2022-08-26T00:44:19.043Z,18.50
2022-08-26T00:46:51.951Z,23.80
2022-08-26T00:49:28.500Z,18.20
2022-08-26T00:52:02.898Z,18.90
2022-08-26T00:54:37.282Z,26.20
2022-08-26T00:57:16.282Z,22.80
2022-08-26T00:59:47.711Z,18.80
2022-08-26T01:02:20.916Z,20.60
2022-08-26T01:04:55.459Z,22.50
2022-08-26T01:07:26.150Z,20.10
2022-08-26T01:09:55.405Z,19.60
2022-08-26T01:12:25.122Z,19.20
2022-08-26T01:14:54.928Z,20.40
2022-08-26T01:17:23.572Z,23.90
2022-08-26T01:19:56.715Z,23.70
2022-08-26T01:22:33.741Z,21.70
2022-08-26T01:25:04.459Z,21.30
2022-08-26T01:27:36.138Z,20.70
2022-08-26T01:30:06.373Z,18.50
2022-08-26T01:32:35.636Z,19.20
2022-08-26T01:35:09.271Z,19.00
2022-08-26T01:37:40.517Z,16.00
2022-08-26T01:40:14.223Z,17.40
2022-08-26T01:42:46.441Z,24.40
2022-08-26T01:45:19.705Z,19.60
2022-08-26T01:47:57.012Z,14.20
2022-08-26T01:50:30.217Z,21.60
2022-08-26T01:53:02.542Z,22.10
2022-08-26T01:55:34.072Z,14.40
2022-08-26T01:58:07.810Z,17.90
2022-08-26T02:00:37.819Z,18.30
2022-08-26T02:03:17.111Z,18.60
2022-08-26T02:05:51.276Z,16.00
2022-08-26T02:08:24.680Z,18.30
2022-08-26T02:10:55.213Z,18.10
2022-08-26T02:13:26.059Z,18.30
2022-08-26T02:15:56.179Z,18.40
2022-08-26T02:18:27.874Z,19.10
2022-08-26T02:20:57.352Z,25.90
2022-08-26T02:23:26.125Z,15.70
2022-08-26T02:26:00.184Z,14.30
2022-08-26T02:28:34.205Z,12.70
2022-08-26T02:31:03.481Z,15.00
2022-08-26T02:33:33.209Z,10.90
2022-08-26T02:36:02.150Z,18.20
2022-08-26T02:38:32.748Z,15.60
2022-08-26T02:41:02.313Z,15.80
2022-08-26T02:43:31.441Z,17.30
2022-08-26T02:46:02.396Z,16.40
2022-08-26T02:48:31.367Z,15.40
2022-08-26T02:51:01.114Z,14.70
2022-08-26T02:53:31.812Z,16.10
2022-08-26T02:56:00.836Z,16.50
2022-08-26T02:58:30.021Z,15.70
2022-08-26T03:00:58.562Z,15.20
2022-08-26T03:03:27.321Z,14.90
2022-08-26T03:05:56.426Z,20.70
2022-08-26T03:08:25.028Z,15.50
2022-08-26T03:10:54.034Z,17.40
2022-08-26T03:13:22.606Z,19.40
2022-08-26T03:15:51.273Z,14.90
2022-08-26T03:18:20.093Z,17.00
2022-08-26T03:20:49.201Z,13.10
2022-08-26T03:23:18.568Z,16.40
2022-08-26T03:25:50.436Z,17.90
2022-08-26T03:28:19.643Z,21.30
2022-08-26T03:30:48.643Z,22.40
2022-08-26T03:33:18.473Z,15.00
2022-08-26T03:35:47.665Z,18.00
2022-08-26T03:38:19.969Z,18.80
2022-08-26T03:40:48.693Z,17.90
2022-08-26T03:43:19.117Z,14.50
2022-08-26T03:45:47.683Z,16.10
2022-08-26T03:48:16.123Z,18.60
2022-08-26T03:50:44.850Z,14.10
2022-08-26T03:53:13.587Z,21.70
2022-08-26T03:55:42.344Z,14.30
2022-08-26T03:58:12.000Z,18.50
2022-08-26T04:00:40.627Z,17.50
2022-08-26T04:03:11.161Z,16.10
2022-08-26T04:05:41.795Z,22.00
2022-08-26T04:08:10.381Z,21.90
2022-08-26T04:10:39.097Z,17.40
2022-08-26T04:13:07.780Z,15.40
2022-08-26T04:15:36.500Z,16.50
2022-08-26T04:18:05.430Z,16.20
2022-08-26T04:20:34.113Z,21.00
2022-08-26T04:23:02.679Z,17.40
2022-08-26T04:25:31.611Z,17.70
2022-08-26T04:28:00.611Z,17.80
2022-08-26T04:30:29.249Z,15.80
2022-08-26T04:32:58.287Z,15.20
2022-08-26T04:35:26.727Z,15.60
2022-08-26T04:37:55.402Z,18.30
2022-08-26T04:40:26.864Z,16.70
2022-08-26T04:42:55.796Z,15.50
2022-08-26T04:45:25.075Z,16.80
2022-08-26T04:47:55.726Z,16.90
2022-08-26T04:50:25.626Z,18.80
2022-08-26T04:52:55.558Z,14.70
2022-08-26T04:55:38.253Z,19.90
2022-08-26T04:58:08.795Z,19.60
2022-08-26T05:00:39.189Z,24.80
2022-08-26T05:03:10.313Z,21.70
2022-08-26T05:05:41.961Z,16.30
2022-08-26T05:08:11.807Z,20.50
2022-08-26T05:10:42.191Z,18.20
2022-08-26T05:13:15.743Z,17.50
2022-08-26T05:15:45.432Z,18.30
2022-08-26T05:18:15.980Z,15.90
2022-08-26T05:20:54.018Z,19.30
2022-08-26T05:23:24.282Z,18.60
2022-08-26T05:25:59.364Z,20.90
2022-08-26T05:28:30.199Z,23.80
2022-08-26T05:30:59.005Z,20.70
2022-08-26T05:33:28.781Z,22.80
2022-08-26T05:35:57.350Z,21.50
2022-08-26T05:38:26.816Z,25.30
2022-08-26T05:40:59.339Z,17.10
2022-08-26T05:43:28.416Z,21.50
2022-08-26T05:46:06.048Z,17.20
2022-08-26T05:48:34.776Z,19.30
2022-08-26T05:51:05.937Z,30.80
2022-08-26T05:53:35.150Z,20.20
2022-08-26T05:56:07.011Z,25.00
2022-08-26T05:58:38.513Z,31.80
2022-08-26T06:01:10.103Z,23.40
2022-08-26T06:03:43.873Z,19.10
2022-08-26T06:06:14.807Z,41.30
2022-08-26T06:08:49.642Z,28.50
2022-08-26T06:11:20.037Z,24.40
2022-08-26T06:13:49.129Z,27.40
2022-08-26T06:16:22.712Z,19.60
2022-08-26T06:18:54.029Z,20.20
2022-08-26T06:21:25.058Z,24.70
2022-08-26T06:24:13.998Z,18.50
2022-08-26T06:26:49.755Z,21.90
2022-08-26T06:29:24.664Z,21.40
2022-08-26T06:31:56.132Z,21.90
2022-08-26T06:34:29.642Z,22.40
2022-08-26T06:37:01.635Z,21.10
2022-08-26T06:39:31.630Z,20.60
2022-08-26T06:42:02.682Z,21.00
2022-08-26T06:44:35.473Z,26.00
2022-08-26T06:47:04.519Z,22.70
2022-08-26T06:49:33.288Z,32.50
2022-08-26T06:52:02.274Z,20.10
2022-08-26T06:54:30.939Z,28.40
2022-08-26T06:57:00.537Z,20.20
2022-08-26T06:59:30.522Z,20.80
2022-08-26T07:01:59.171Z,26.40
2022-08-26T07:04:28.874Z,29.00
2022-08-26T07:06:57.497Z,23.90
2022-08-26T07:09:28.620Z,22.00
2022-08-26T07:11:57.182Z,24.70
2022-08-26T07:14:26.176Z,19.20
2022-08-26T07:16:55.707Z,23.40
2022-08-26T07:19:27.681Z,24.60
2022-08-26T07:22:04.309Z,24.40
2022-08-26T07:24:35.376Z,27.60
2022-08-26T07:29:35.377Z,24.00
2022-08-26T07:32:05.311Z,22.30
2022-08-26T07:34:34.457Z,24.80
2022-08-26T07:37:03.358Z,24.10
2022-08-26T07:39:32.792Z,20.80
2022-08-26T07:42:07.417Z,24.10
2022-08-26T07:44:37.116Z,30.40
2022-08-26T07:47:10.558Z,19.30
2022-08-26T07:49:57.250Z,18.90
2022-08-26T07:52:28.774Z,22.40
2022-08-26T07:55:00.005Z,23.20
2022-08-26T07:57:29.802Z,21.80
2022-08-26T07:59:58.536Z,21.70
2022-08-26T08:02:29.823Z,20.70
2022-08-26T08:04:59.365Z,19.10
2022-08-26T08:07:38.266Z,24.00
2022-08-26T08:10:11.577Z,25.60
2022-08-26T08:12:40.592Z,21.00
2022-08-26T08:15:13.096Z,22.60
2022-08-26T08:17:55.663Z,24.30
2022-08-26T08:20:29.301Z,21.60
2022-08-26T08:22:58.726Z,20.80
2022-08-26T08:25:27.238Z,17.80
2022-08-26T08:27:55.852Z,25.40
2022-08-26T08:30:25.750Z,21.60
2022-08-26T08:32:55.357Z,22.80
2022-08-26T08:35:25.887Z,20.30
2022-08-26T08:40:26.403Z,21.40
2022-08-26T08:43:01.097Z,20.60
2022-08-26T08:45:37.251Z,18.20
2022-08-26T08:48:13.115Z,20.20
2022-08-26T08:50:45.930Z,24.60
2022-08-26T08:53:17.810Z,19.50
2022-08-26T08:55:58.077Z,21.10
2022-08-26T08:58:35.400Z,21.30
2022-08-26T09:01:11.810Z,19.40
2022-08-26T09:03:50.938Z,19.90
2022-08-26T09:06:20.578Z,21.40
2022-08-26T09:08:51.618Z,18.40
2022-08-26T09:11:20.597Z,18.10
2022-08-26T09:13:51.733Z,20.80
2022-08-26T09:16:24.740Z,24.20
2022-08-26T09:19:14.864Z,20.20
2022-08-26T09:21:55.667Z,19.20
2022-08-26T09:24:28.569Z,16.10
2022-08-26T09:26:58.445Z,19.20
2022-08-26T09:29:28.949Z,16.80
2022-08-26T09:32:18.753Z,18.80
2022-08-26T09:34:58.450Z,13.50
2022-08-26T09:37:39.135Z,16.80
2022-08-26T09:40:18.376Z,20.20
2022-08-26T09:43:07.677Z,14.80
2022-08-26T09:45:37.124Z,11.40
2022-08-26T09:48:08.358Z,12.70
2022-08-26T09:50:39.289Z,16.60
2022-08-26T09:53:17.425Z,17.50
2022-08-26T09:55:54.469Z,11.40
2022-08-26T09:58:37.798Z,9.50
2022-08-26T10:01:13.957Z,12.50
2022-08-26T10:03:44.437Z,14.10
2022-08-26T10:06:26.118Z,13.40
2022-08-26T10:08:58.397Z,11.20
2022-08-26T10:11:34.381Z,9.50
2022-08-26T10:14:17.030Z,11.80
2022-08-26T10:16:52.511Z,12.40
2022-08-26T10:19:40.187Z,11.20
2022-08-26T10:22:23.053Z,10.40
2022-08-26T10:24:57.343Z,10.70
2022-08-26T10:27:40.585Z,9.50
2022-08-26T10:30:24.141Z,10.10
2022-08-26T10:32:57.991Z,12.50
2022-08-26T10:35:27.300Z,9.00
2022-08-26T10:38:03.362Z,16.20
2022-08-26T10:40:44.880Z,10.40
2022-08-26T10:43:21.054Z,6.10
2022-08-26T10:45:53.046Z,15.50
2022-08-26T10:48:35.617Z,6.60
2022-08-26T10:51:05.763Z,10.00
2022-08-26T10:53:44.886Z,10.20
2022-08-26T10:56:24.669Z,7.40
2022-08-26T10:59:03.882Z,9.70
2022-08-26T11:01:42.992Z,6.40
2022-08-26T11:04:23.537Z,16.20
2022-08-26T11:07:24.899Z,8.10
2022-08-26T11:09:53.448Z,5.10
2022-08-26T11:12:57.223Z,9.10
2022-08-26T11:16:09.899Z,6.90
2022-08-26T11:18:48.061Z,6.70
2022-08-26T11:25:00.097Z,8.30
2022-08-26T11:28:02.976Z,10.50
2022-08-26T11:30:43.993Z,8.40
2022-08-26T11:33:59.470Z,5.50
2022-08-26T11:36:42.523Z,13.90
2022-08-26T11:39:19.665Z,7.90
2022-08-26T11:41:52.755Z,9.60
2022-08-26T11:44:24.463Z,11.70
2022-08-26T11:46:58.899Z,8.40
2022-08-26T11:49:29.229Z,9.70
2022-08-26T11:52:15.548Z,8.90
2022-08-26T11:55:02.613Z,6.50
2022-08-26T11:57:34.299Z,9.20
2022-08-26T12:00:07.417Z,7.80
2022-08-26T12:02:40.942Z,7.90
2022-08-26T12:05:12.292Z,10.10
2022-08-26T12:07:42.631Z,9.00
2022-08-26T12:10:24.500Z,12.10
2022-08-26T12:13:00.079Z,10.30
2022-08-26T12:15:31.385Z,6.10
2022-08-26T12:20:47.944Z,10.90
2022-08-26T12:23:25.027Z,6.80
2022-08-26T12:26:05.224Z,13.10
2022-08-26T12:28:41.176Z,15.50
2022-08-26T12:31:10.042Z,8.90
2022-08-26T12:33:38.988Z,6.80
2022-08-26T12:36:08.154Z,9.30
2022-08-26T12:38:39.866Z,6.10
2022-08-26T12:41:08.555Z,12.60
2022-08-26T12:43:40.148Z,10.40
2022-08-26T12:46:11.032Z,8.30
2022-08-26T12:48:44.177Z,8.70
2022-08-26T12:51:23.029Z,8.60
2022-08-26T12:53:52.427Z,10.20
2022-08-26T12:56:27.407Z,18.60
2022-08-26T12:59:10.295Z,7.80
2022-08-26T13:01:44.104Z,8.50
2022-08-26T13:04:38.151Z,10.00
2022-08-26T13:07:29.763Z,7.30
2022-08-26T13:12:30.436Z,8.60
2022-08-26T13:15:00.868Z,10.50
2022-08-26T13:17:30.644Z,14.50
2022-08-26T13:20:03.819Z,8.60
2022-08-26T13:22:33.336Z,13.00
2022-08-26T13:25:02.080Z,12.40
2022-08-26T13:27:30.886Z,6.80
2022-08-26T13:30:00.961Z,6.10
2022-08-26T13:32:31.145Z,8.20
2022-08-26T13:35:00.004Z,11.10
2022-08-26T13:37:35.609Z,12.10
2022-08-26T13:40:06.604Z,8.20
2022-08-26T13:42:35.482Z,11.50
2022-08-26T13:45:06.441Z,11.50
2022-08-26T13:47:37.840Z,13.30
2022-08-26T13:50:07.866Z,12.40
2022-08-26T13:52:36.710Z,8.60
2022-08-26T13:55:09.300Z,10.50
2022-08-26T13:57:38.152Z,10.80
2022-08-26T14:00:10.981Z,10.30
2022-08-26T14:02:40.230Z,8.90
2022-08-26T14:05:09.913Z,8.80
2022-08-26T14:07:41.529Z,9.80
2022-08-26T14:10:12.124Z,6.80
2022-08-26T14:12:40.699Z,9.20
2022-08-26T14:15:11.761Z,7.90
2022-08-26T14:17:40.411Z,10.10
2022-08-26T14:20:13.919Z,10.20
2022-08-26T14:23:03.406Z,11.60
2022-08-26T14:25:33.335Z,10.80
2022-08-26T14:28:01.915Z,7.30
2022-08-26T14:30:34.272Z,11.00
2022-08-26T14:33:03.004Z,17.40
2022-08-26T14:35:32.011Z,15.40
2022-08-26T14:38:00.500Z,7.40
2022-08-26T14:40:31.159Z,14.00
2022-08-26T14:43:00.576Z,12.80
2022-08-26T14:45:29.448Z,8.70
2022-08-26T14:47:59.194Z,7.40
2022-08-26T14:50:27.799Z,10.40
2022-08-26T14:53:15.033Z,9.00
2022-08-26T14:55:44.326Z,13.60
2022-08-26T14:58:13.671Z,14.70
2022-08-26T15:00:44.530Z,4.90
2022-08-26T15:05:48.882Z,9.10
2022-08-26T15:08:20.155Z,9.10
2022-08-26T15:10:50.519Z,7.40
2022-08-26T15:13:19.703Z,8.00
2022-08-26T15:15:52.039Z,14.00
2022-08-26T15:18:21.723Z,12.90
2022-08-26T15:20:52.062Z,19.70
2022-08-26T15:23:20.788Z,10.40
2022-08-26T15:25:49.880Z,7.50
2022-08-26T15:28:18.500Z,5.10
2022-08-26T15:30:47.309Z,10.80
2022-08-26T15:33:16.099Z,9.60
2022-08-26T15:35:44.783Z,10.00
2022-08-26T15:38:13.721Z,13.60
2022-08-26T15:40:43.521Z,13.50
2022-08-26T15:43:27.627Z,7.10
2022-08-26T15:45:58.231Z,6.20
2022-08-26T15:48:27.875Z,9.40
2022-08-26T15:51:00.035Z,10.50
2022-08-26T15:53:32.447Z,13.10
2022-08-26T15:56:03.703Z,6.60
2022-08-26T15:58:33.630Z,8.80
2022-08-26T16:01:05.942Z,10.70
2022-08-26T16:03:35.696Z,8.00
2022-08-26T16:06:06.288Z,10.30
2022-08-26T16:08:36.697Z,11.20
2022-08-26T16:11:06.963Z,13.50
2022-08-26T16:13:40.120Z,13.40
2022-08-26T16:16:09.997Z,12.70
2022-08-26T16:18:39.085Z,14.30
2022-08-26T16:21:13.679Z,15.90
2022-08-26T16:23:45.111Z,19.30
2022-08-26T16:28:43.968Z,19.60
2022-08-26T16:31:13.264Z,13.10
2022-08-26T16:33:42.073Z,8.70
2022-08-26T16:36:11.938Z,15.60
2022-08-26T16:38:41.693Z,9.80
2022-08-26T16:41:10.425Z,19.10
2022-08-26T16:43:39.120Z,11.80
2022-08-26T16:46:10.779Z,10.30
2022-08-26T16:48:39.667Z,12.90
2022-08-26T16:51:12.800Z,8.80
2022-08-26T16:53:41.820Z,14.60
2022-08-26T16:56:14.290Z,13.30
2022-08-26T16:58:43.174Z,10.50
2022-08-26T17:01:11.874Z,11.00
2022-08-26T17:03:40.738Z,14.20
2022-08-26T17:06:11.006Z,10.70
2022-08-26T17:08:40.567Z,10.00
2022-08-26T17:11:09.505Z,11.90
2022-08-26T17:13:38.912Z,9.10
2022-08-26T17:16:09.964Z,9.80
2022-08-26T17:18:38.929Z,9.40
2022-08-26T17:21:10.699Z,8.20
2022-08-26T17:23:40.953Z,6.50
2022-08-26T17:26:11.401Z,9.90
2022-08-26T17:28:40.173Z,8.60
2022-08-26T17:31:10.915Z,7.80
2022-08-26T17:33:40.435Z,8.00
2022-08-26T17:36:09.803Z,6.70
2022-08-26T17:38:39.039Z,10.20
2022-08-26T17:41:09.520Z,10.50
2022-08-26T17:43:40.079Z,12.80
2022-08-26T17:46:11.282Z,12.70
2022-08-26T17:48:41.109Z,8.30
2022-08-26T17:51:11.584Z,17.10
2022-08-26T17:53:40.901Z,12.70
2022-08-26T17:56:11.000Z,13.30
2022-08-26T17:58:40.411Z,10.90
2022-08-26T18:01:08.912Z,8.80
2022-08-26T18:03:37.667Z,8.30
2022-08-26T18:06:11.498Z,11.30
2022-08-26T18:08:41.157Z,9.60
2022-08-26T18:11:12.245Z,7.90
2022-08-26T18:13:46.058Z,14.00
2022-08-26T18:16:18.155Z,12.70
2022-08-26T18:18:47.937Z,8.50
2022-08-26T18:21:19.210Z,11.70
2022-08-26T18:23:48.632Z,11.60
2022-08-26T18:26:19.915Z,9.10
2022-08-26T18:28:49.245Z,9.00
2022-08-26T18:31:18.962Z,12.60
2022-08-26T18:33:49.516Z,15.70
2022-08-26T18:36:21.971Z,9.20
2022-08-26T18:38:52.637Z,14.40
2022-08-26T18:41:24.228Z,6.30
2022-08-26T18:43:54.745Z,6.50
2022-08-26T18:46:26.116Z,11.50
2022-08-26T18:48:57.312Z,17.00
2022-08-26T18:51:29.487Z,13.80
2022-08-26T18:54:01.137Z,12.90
2022-08-26T18:56:31.917Z,12.50
2022-08-26T18:59:01.424Z,13.30
2022-08-26T19:01:32.694Z,14.70
2022-08-26T19:04:04.742Z,16.30
2022-08-26T19:06:37.802Z,11.00
2022-08-26T19:09:09.966Z,13.20
2022-08-26T19:11:43.992Z,11.80
2022-08-26T19:14:16.970Z,14.00
2022-08-26T19:16:51.824Z,15.90
2022-08-26T19:19:24.239Z,15.40
2022-08-26T19:21:56.936Z,13.10
2022-08-26T19:24:30.601Z,11.20
2022-08-26T19:27:01.272Z,10.60
2022-08-26T19:29:32.836Z,13.20
2022-08-26T19:34:45.443Z,11.30
2022-08-26T19:37:14.331Z,8.70
2022-08-26T19:39:43.179Z,11.50
2022-08-26T19:42:11.789Z,13.00
2022-08-26T19:44:58.523Z,6.70
2022-08-26T19:47:27.156Z,9.40
2022-08-26T19:49:56.279Z,10.50
2022-08-26T19:52:29.912Z,10.70
2022-08-26T19:54:59.973Z,11.00
2022-08-26T19:57:28.681Z,10.60
2022-08-26T19:59:57.310Z,12.50
2022-08-26T20:02:25.964Z,8.30
2022-08-26T20:04:55.405Z,11.30
2022-08-26T20:07:23.812Z,16.50
2022-08-26T20:09:52.487Z,9.20
2022-08-26T20:12:21.023Z,13.20
2022-08-26T20:14:49.519Z,11.00
2022-08-26T20:17:17.992Z,11.30
2022-08-26T20:20:01.583Z,12.70
2022-08-26T20:22:30.618Z,12.20
2022-08-26T20:24:59.241Z,12.20
2022-08-26T20:27:38.097Z,19.00
2022-08-26T20:30:10.265Z,14.20
2022-08-26T20:32:39.711Z,10.40
2022-08-26T20:35:11.835Z,15.60
2022-08-26T20:37:41.048Z,11.60
2022-08-26T20:40:13.187Z,11.90
2022-08-26T20:42:41.932Z,10.90
2022-08-26T20:45:11.566Z,12.40
2022-08-26T20:47:40.744Z,16.00
2022-08-26T20:50:09.978Z,16.00
2022-08-26T20:52:38.884Z,17.10
2022-08-26T20:55:09.164Z,13.90
2022-08-26T20:57:37.671Z,13.70
2022-08-26T21:00:08.274Z,17.10
2022-08-26T21:02:36.933Z,13.60
2022-08-26T21:05:07.741Z,11.90
2022-08-26T21:07:36.260Z,10.00
2022-08-26T21:10:06.437Z,16.60
2022-08-26T21:12:35.073Z,15.80
2022-08-26T21:15:04.131Z,14.80
2022-08-26T21:17:33.606Z,9.50
2022-08-26T21:20:02.960Z,11.60
2022-08-26T21:22:31.717Z,11.60
2022-08-26T21:25:00.933Z,11.50
2022-08-26T21:27:29.584Z,12.50
2022-08-26T21:29:58.346Z,14.60
2022-08-26T21:32:27.343Z,9.00
2022-08-26T21:34:57.070Z,12.70
2022-08-26T21:37:27.419Z,13.90
2022-08-26T21:39:57.374Z,16.20
2022-08-26T21:42:26.723Z,17.40
2022-08-26T21:44:55.359Z,19.40
2022-08-26T21:47:24.317Z,15.20
2022-08-26T21:49:53.670Z,16.80
2022-08-26T21:52:22.274Z,11.20
2022-08-26T21:54:50.915Z,12.40
2022-08-26T21:57:19.966Z,13.40
2022-08-26T21:59:48.604Z,14.00
2022-08-26T22:02:17.162Z,13.20
2022-08-26T22:04:48.828Z,13.50
2022-08-26T22:07:19.473Z,17.20
2022-08-26T22:09:49.135Z,14.30
2022-08-26T22:12:18.519Z,13.00
2022-08-26T22:14:47.377Z,13.60
2022-08-26T22:17:16.399Z,18.60
2022-08-26T22:19:46.383Z,9.30
2022-08-26T22:22:15.912Z,12.40
2022-08-26T22:24:44.622Z,9.80
2022-08-26T22:27:13.648Z,12.20
2022-08-26T22:29:42.421Z,13.60
2022-08-26T22:32:11.077Z,14.00
2022-08-26T22:34:39.965Z,10.60
2022-08-26T22:37:08.460Z,13.10
2022-08-26T22:39:37.632Z,18.40
2022-08-26T22:42:06.593Z,12.80
2022-08-26T22:44:36.955Z,13.20
2022-08-26T22:47:06.069Z,9.80
2022-08-26T22:49:34.789Z,12.30
2022-08-26T22:52:04.039Z,12.60
2022-08-26T22:54:32.637Z,13.00
2022-08-26T22:57:01.342Z,12.00
2022-08-26T22:59:50.045Z,12.20
2022-08-26T23:02:19.166Z,11.40
2022-08-26T23:04:49.375Z,10.70
2022-08-26T23:07:18.065Z,15.10
2022-08-26T23:09:46.673Z,10.80
2022-08-26T23:12:15.154Z,13.10
2022-08-26T23:14:43.736Z,11.60
2022-08-26T23:17:13.745Z,13.10
2022-08-26T23:19:42.898Z,12.10
2022-08-26T23:22:11.739Z,16.40
2022-08-26T23:24:40.390Z,14.90
2022-08-26T23:27:09.138Z,13.90
2022-08-26T23:29:39.133Z,12.80
2022-08-26T23:32:07.839Z,17.00
2022-08-26T23:34:54.615Z,15.00
2022-08-26T23:37:23.334Z,21.40
2022-08-26T23:39:54.566Z,11.10
2022-08-26T23:42:23.249Z,11.80
2022-08-26T23:44:51.958Z,13.60
2022-08-26T23:47:20.575Z,16.30
2022-08-26T23:49:49.207Z,19.00
2022-08-26T23:52:35.771Z,10.60
2022-08-26T23:55:05.866Z,13.30
2022-08-26T23:57:37.773Z,14.60
